Time;durP1;ratioP1;P1;durP2;ratioP2;P2;SDS_P1;SDS_P2;PMS_P1;PMS_P2;Temp;Humidity;BMP_temperature;BMP_pressure;BME280_temperature;BME280_humidity;BME280_pressure;Samples;Min_cycle;Max_cycle;Signal;HPM_P1;HPM_P2
2023/02/13 00:00:01;;;;;;;;;;;;;;;22.56;16.27;99663.84;5056215;28;920;-77
2023/02/13 00:02:30;;;;;;;;;;;;;;;22.53;16.37;99673.97;5056248;28;1905;-77
2023/02/13 00:04:55;;;;;;;;;;;;;;;22.73;16.30;99677.13;5064269;28;1296;-77
2023/02/13 00:07:20;;;;;;;;;;;;;;;22.08;16.92;99675.72;5075509;28;1055;-77
2023/02/13 00:09:46;;;;;;;;;;;;;;;22.51;16.66;99676.44;5074826;28;948;-77
2023/02/13 00:12:11;;;;;;;;;;;;;;;22.03;17.03;99667.63;5075794;28;920;-77
2023/02/13 00:14:37;;;;;;;;;;;;;;;22.21;16.64;99662.75;5105136;28;1422;-77
2023/02/13 00:17:03;;;;;;;;;;;;;;;22.44;16.42;99670.78;5109349;28;977;-77
2023/02/13 00:19:28;;;;;;;;;;;;;;;22.09;17.13;99666.00;5067086;28;1371;-77
2023/02/13 00:21:54;;;;;;;;;;;;;;;22.81;15.98;99673.06;5056164;28;1910;-77
2023/02/13 00:24:19;;;;;;;;;;;;;;;22.70;16.39;99648.81;5058501;28;1375;-77
2023/02/13 00:26:44;;;;;;;;;;;;;;;22.21;16.87;99674.09;5074705;28;1834;-77
2023/02/13 00:29:10;;;;;;;;;;;;;;;22.16;16.84;99677.34;5057256;28;1425;-77
2023/02/13 00:31:36;;;;;;;;;;;;;;;22.65;16.21;99677.59;5076248;28;956;-77
2023/02/13 00:34:02;;;;;;;;;;;;;;;22.94;16.15;99683.97;5092733;28;1410;-77
2023/02/13 00:36:27;;;;;;;;;;;;;;;22.61;16.14;99691.78;5073458;28;1451;-77
2023/02/13 00:38:53;;;;;;;;;;;;;;;22.62;16.19;99687.72;5073238;28;927;-77
2023/02/13 00:41:19;;;;;;;;;;;;;;;22.16;16.94;99696.38;5056794;28;1981;-77
2023/02/13 00:43:44;;;;;;;;;;;;;;;22.15;16.98;99687.06;5073110;28;1040;-77
2023/02/13 00:46:10;;;;;;;;;;;;;;;22.43;16.42;99694.69;5073036;28;1280;-77
2023/02/13 00:48:35;;;;;;;;;;;;;;;22.81;16.09;99690.09;5073188;28;956;-77
2023/02/13 00:51:01;;;;;;;;;;;;;;;22.38;16.33;99699.97;5073295;28;1306;-77
2023/02/13 00:53:28;;;;;;;;;;;;;;;22.22;16.75;99698.38;5056882;28;1233;-77
2023/02/13 00:55:54;;;;;;;;;;;;;;;23.32;15.99;99694.28;5072843;28;1368;-77
2023/02/13 00:58:19;;;;;;;;;;;;;;;22.44;16.52;99698.34;5073194;28;1162;-77
2023/02/13 01:00:46;;;;;;;;;;;;;;;22.69;16.19;99710.41;5073122;28;1906;-77
2023/02/13 01:03:12;;;;;;;;;;;;;;;22.71;16.27;99710.00;5072940;28;1273;-77
2023/02/13 01:05:38;;;;;;;;;;;;;;;22.48;16.51;99699.13;5071819;28;1228;-77
2023/02/13 01:08:03;;;;;;;;;;;;;;;22.68;16.07;99705.94;5075283;28;933;-77
2023/02/13 01:10:29;;;;;;;;;;;;;;;22.65;16.28;99701.09;5074552;28;1125;-77
2023/02/13 01:12:54;;;;;;;;;;;;;;;23.18;15.56;99697.22;5074180;28;1016;-77
2023/02/13 01:15:20;;;;;;;;;;;;;;;22.66;16.15;99705.56;5064190;28;1304;-77
2023/02/13 01:17:45;;;;;;;;;;;;;;;23.03;15.75;99695.69;5055330;28;952;-77
2023/02/13 01:20:11;;;;;;;;;;;;;;;21.90;16.80;99691.94;5058575;28;1057;-77
2023/02/13 01:22:36;;;;;;;;;;;;;;;22.83;15.87;99693.31;5059215;28;1906;-77
2023/02/13 01:25:02;;;;;;;;;;;;;;;23.25;15.60;99685.78;5092851;28;1375;-77
2023/02/13 01:27:29;;;;;;;;;;;;;;;22.72;16.11;99698.22;5058410;28;1227;-77
2023/02/13 01:29:55;;;;;;;;;;;;;;;21.64;16.58;99600.50;5074735;28;1552;-77
2023/02/13 01:32:20;;;;;;;;;;;;;;;22.08;16.90;99692.72;5058147;28;1214;-77
2023/02/13 01:34:46;;;;;;;;;;;;;;;22.87;16.09;99693.28;5074838;28;1347;-77
2023/02/13 01:37:11;;;;;;;;;;;;;;;22.63;16.28;99692.19;5074760;28;986;-77
2023/02/13 01:39:37;;;;;;;;;;;;;;;23.17;15.52;99684.25;5057565;28;898;-77
2023/02/13 01:42:03;;;;;;;;;;;;;;;22.90;15.89;99691.69;5059467;28;1973;-77
2023/02/13 01:44:47;;;;;;;;;;;;;;;22.85;16.08;99696.56;5074712;28;1336;-77
2023/02/13 01:47:16;;;;;;;;;;;;;;;23.07;15.98;99696.47;5058123;28;1188;-77
2023/02/13 01:49:41;;;;;;;;;;;;;;;22.27;16.54;99700.81;5091293;28;981;-77
2023/02/13 01:52:06;;;;;;;;;;;;;;;22.76;15.94;99687.69;5091442;28;953;-77
2023/02/13 01:54:32;;;;;;;;;;;;;;;22.64;16.26;99696.66;5106294;28;1446;-77
2023/02/13 01:57:02;;;;;;;;;;;;;;;22.73;15.90;99693.34;5077000;28;1380;-77
2023/02/13 01:59:32;;;;;;;;;;;;;;;22.58;16.15;99695.44;5094754;28;1062;-77
2023/02/13 02:01:58;;;;;;;;;;;;;;;22.26;16.48;99692.72;5111101;28;1909;-77
2023/02/13 02:04:28;;;;;;;;;;;;;;;22.33;16.20;99692.72;5110186;28;1428;-77
2023/02/13 02:06:56;;;;;;;;;;;;;;;22.58;16.20;99698.28;5094583;28;1093;-77
2023/02/13 02:09:26;;;;;;;;;;;;;;;22.35;16.28;99696.75;5077344;28;1085;-77
2023/02/13 02:11:57;;;;;;;;;;;;;;;22.69;15.93;99698.22;5094106;28;908;-77
2023/02/13 02:14:22;;;;;;;;;;;;;;;22.15;16.54;99698.41;5078848;28;1626;-77
2023/02/13 02:16:48;;;;;;;;;;;;;;;21.96;16.98;99695.97;5057068;28;927;-77
2023/02/13 02:19:18;;;;;;;;;;;;;;;22.10;16.35;99701.63;5058049;28;955;-77
2023/02/13 02:21:53;;;;;;;;;;;;;;;22.39;16.34;99704.44;5116647;28;1975;-77
2023/02/13 02:24:26;;;;;;;;;;;;;;;22.67;15.75;99707.16;5078689;28;1401;-77
2023/02/13 02:26:58;;;;;;;;;;;;;;;22.26;16.45;99710.53;5079067;28;1150;-77
2023/02/13 02:29:46;;;;;;;;;;;;;;;22.84;15.89;99706.28;5112714;28;1192;-77
2023/02/13 02:32:23;;;;;;;;;;;;;;;22.31;16.18;99707.28;5095885;28;959;-77
2023/02/13 02:34:54;;;;;;;;;;;;;;;22.84;15.84;99697.75;5079348;28;1499;-77
2023/02/13 02:37:24;;;;;;;;;;;;;;;22.90;15.57;99714.38;5096066;28;1130;-77
2023/02/13 02:39:52;;;;;;;;;;;;;;;23.02;15.87;99706.22;5078714;28;1132;-77
2023/02/13 02:42:21;;;;;;;;;;;;;;;22.64;15.80;99713.69;5095864;28;1909;-77
2023/02/13 02:44:55;;;;;;;;;;;;;;;22.75;15.70;99720.13;5094971;28;1499;-77
2023/02/13 02:50:13;;;;;;;;;;;;;;;22.53;15.90;99732.75;5081678;28;1311;-77
2023/02/13 02:52:41;;;;;;;;;;;;;;;22.71;16.04;99725.00;5078810;28;1130;-77
2023/02/13 02:55:22;;;;;;;;;;;;;;;23.03;15.53;99724.88;5115107;28;1760;-76
2023/02/13 03:06:24;;;;;;;;;;;;;;;22.40;16.14;99737.25;5082298;28;1445;-77
2023/02/13 03:14:19;;;;;;;;;;;;;;;22.82;15.89;99731.44;5080733;28;1015;-77
2023/02/13 03:22:24;;;;;;;;;;;;;;;22.32;15.99;99734.41;5094826;28;1922;-77
2023/02/13 03:24:59;;;;;;;;;;;;;;;22.73;15.83;99728.22;5078418;28;947;-77
2023/02/13 03:30:15;;;;;;;;;;;;;;;22.50;15.81;99725.06;5097968;28;1437;-77
2023/02/13 03:32:59;;;;;;;;;;;;;;;22.56;15.81;99729.09;5078374;28;928;-77
2023/02/13 03:38:39;;;;;;;;;;;;;;;22.60;15.60;99729.91;5080093;28;1535;-77
2023/02/13 03:41:24;;;;;;;;;;;;;;;22.24;16.01;99730.00;5033017;28;1902;-78
2023/02/13 03:44:09;;;;;;;;;;;;;;;22.63;15.69;99738.38;4994973;28;965;-77
2023/02/13 03:46:38;;;;;;;;;;;;;;;22.72;15.57;99735.13;4995067;28;912;-77
2023/02/13 03:51:50;;;;;;;;;;;;;;;22.21;16.30;99730.78;4995052;28;1024;-77
2023/02/13 03:54:21;;;;;;;;;;;;;;;22.81;15.47;99724.13;4994498;28;998;-77
2023/02/13 03:59:33;;;;;;;;;;;;;;;22.11;16.00;99725.94;4978015;28;1336;-77
2023/02/13 04:02:04;;;;;;;;;;;;;;;22.23;16.27;99728.38;4978363;28;1911;-78
2023/02/13 04:04:32;;;;;;;;;;;;;;;22.53;15.71;99718.56;4995052;28;998;-77
2023/02/13 04:06:57;;;;;;;;;;;;;;;22.30;15.75;99725.53;4978034;28;1266;-77
2023/02/13 04:09:23;;;;;;;;;;;;;;;22.59;15.88;99723.41;4993126;28;1400;-77
2023/02/13 04:11:49;;;;;;;;;;;;;;;22.35;15.78;99725.09;4978304;28;1068;-77
2023/02/13 04:14:22;;;;;;;;;;;;;;;21.91;16.26;99721.88;4994278;28;1095;-77
2023/02/13 04:16:58;;;;;;;;;;;;;;;22.42;15.77;99723.47;4974759;28;1020;-77
2023/02/13 04:19:24;;;;;;;;;;;;;;;22.22;15.94;99725.94;4950873;28;1502;-77
2023/02/13 04:21:53;;;;;;;;;;;;;;;22.84;15.42;99728.97;4995348;28;1914;-77
2023/02/13 04:24:19;;;;;;;;;;;;;;;22.96;15.58;99724.13;5030809;28;1086;-78
2023/02/13 04:26:44;;;;;;;;;;;;;;;22.61;15.86;99737.19;4997528;28;981;-77
2023/02/13 04:29:10;;;;;;;;;;;;;;;22.25;16.09;99725.13;5034892;28;1324;-77
2023/02/13 04:31:35;;;;;;;;;;;;;;;22.23;15.77;99728.38;5050281;28;967;-77
2023/02/13 04:34:01;;;;;;;;;;;;;;;22.32;15.72;99725.91;5033267;28;1713;-77
2023/02/13 04:36:26;;;;;;;;;;;;;;;22.68;15.30;99731.47;5033041;28;1348;-77
2023/02/13 04:38:52;;;;;;;;;;;;;;;22.84;15.31;99728.97;5033716;28;970;-77
2023/02/13 04:41:17;;;;;;;;;;;;;;;22.86;15.33;99726.56;5049925;28;1965;-77
2023/02/13 04:43:43;;;;;;;;;;;;;;;22.90;15.65;99732.25;5033470;28;999;-78
2023/02/13 04:46:08;;;;;;;;;;;;;;;22.71;15.45;99736.34;5013414;28;1646;-78
2023/02/13 04:48:34;;;;;;;;;;;;;;;22.66;15.80;99745.28;5047996;28;927;-77
2023/02/13 04:50:59;;;;;;;;;;;;;;;22.44;15.98;99732.38;5055753;28;997;-77
2023/02/13 04:53:25;;;;;;;;;;;;;;;22.60;15.57;99738.41;5070840;28;921;-77
2023/02/13 04:55:50;;;;;;;;;;;;;;;22.08;16.09;99743.75;5059205;28;1745;-77
2023/02/13 04:58:16;;;;;;;;;;;;;;;21.95;16.43;99739.72;5082000;28;1783;-77
2023/02/13 05:00:41;;;;;;;;;;;;;;;22.60;15.55;99736.38;5063984;28;1509;-78
2023/02/13 05:03:08;;;;;;;;;;;;;;;22.11;15.96;99731.63;5075627;28;1981;-77
2023/02/13 05:05:33;;;;;;;;;;;;;;;22.73;15.70;99745.25;5075604;28;905;-77
2023/02/13 05:07:59;;;;;;;;;;;;;;;22.56;15.68;99748.97;5075883;28;1423;-78
2023/02/13 05:10:24;;;;;;;;;;;;;;;22.95;15.22;99750.84;5075884;28;921;-77
2023/02/13 05:12:50;;;;;;;;;;;;;;;22.69;15.47;99754.97;5076187;28;900;-77
2023/02/13 05:15:15;;;;;;;;;;;;;;;22.32;15.89;99754.25;5075584;28;1046;-79
2023/02/13 05:17:44;;;;;;;;;;;;;;;22.72;15.55;99749.31;5075372;28;1445;-80
2023/02/13 05:20:09;;;;;;;;;;;;;;;22.40;15.47;99748.59;5075016;28;1542;-78
2023/02/13 05:25:19;;;;;;;;;;;;;;;22.67;15.42;99746.09;5075204;28;898;-78
2023/02/13 05:27:44;;;;;;;;;;;;;;;22.87;15.28;99748.03;5075450;28;905;-78
2023/02/13 05:30:10;;;;;;;;;;;;;;;22.24;15.96;99752.69;5075414;28;958;-78
2023/02/13 05:32:36;;;;;;;;;;;;;;;23.00;14.98;99747.59;5075250;28;1415;-78
2023/02/13 05:35:02;;;;;;;;;;;;;;;22.31;15.73;99755.50;5073789;28;1591;-78
2023/02/13 05:37:27;;;;;;;;;;;;;;;22.44;15.65;99750.22;5075032;28;1449;-78
2023/02/13 05:39:53;;;;;;;;;;;;;;;22.54;15.28;99759.91;5075218;28;1473;-78
2023/02/13 05:42:18;;;;;;;;;;;;;;;23.14;14.87;99764.56;5075073;28;1983;-77
2023/02/13 05:44:43;;;;;;;;;;;;;;;22.54;15.69;99771.25;5075166;28;1021;-79
2023/02/13 05:47:09;;;;;;;;;;;;;;;22.26;15.70;99772.91;5075114;28;976;-78
2023/02/13 05:49:34;;;;;;;;;;;;;;;22.75;15.71;99761.88;5075331;28;931;-78
2023/02/13 05:52:00;;;;;;;;;;;;;;;22.42;15.46;99763.16;5075478;28;903;-78
2023/02/13 05:54:25;;;;;;;;;;;;;;;22.45;15.53;99770.88;5074972;28;968;-78
2023/02/13 05:56:51;;;;;;;;;;;;;;;22.23;16.01;99770.91;5075435;28;876;-78
2023/02/13 05:59:16;;;;;;;;;;;;;;;22.69;15.52;99770.00;5075444;28;971;-79
2023/02/13 06:01:41;;;;;;;;;;;;;;;22.76;15.31;99767.13;5075148;28;2032;-78
2023/02/13 06:04:07;;;;;;;;;;;;;;;22.49;15.70;99771.69;5074957;28;987;-79
2023/02/13 06:06:32;;;;;;;;;;;;;;;22.57;15.54;99781.78;5078378;28;1036;-79
2023/02/13 06:08:58;;;;;;;;;;;;;;;22.60;15.51;99776.09;5078969;28;1088;-78
2023/02/13 06:11:23;;;;;;;;;;;;;;;22.67;15.40;99780.13;5078563;28;991;-78
2023/02/13 06:13:49;;;;;;;;;;;;;;;22.76;15.47;99767.13;5078457;28;931;-78
2023/02/13 06:16:14;;;;;;;;;;;;;;;22.48;15.86;99779.34;5078489;28;950;-79
2023/02/13 06:18:40;;;;;;;;;;;;;;;22.65;15.63;99772.03;5078600;28;944;-79
2023/02/13 06:21:05;;;;;;;;;;;;;;;22.61;15.67;99772.03;5078932;28;1981;-78
2023/02/13 06:23:31;;;;;;;;;;;;;;;22.51;15.91;99772.06;5078230;28;990;-79
2023/02/13 06:26:00;;;;;;;;;;;;;;;22.18;16.00;99774.16;5078650;28;942;-79
2023/02/13 06:28:25;;;;;;;;;;;;;;;22.63;15.41;99768.78;5078155;28;916;-78
2023/02/13 06:30:51;;;;;;;;;;;;;;;22.76;15.50;99781.31;5078055;28;915;-79
2023/02/13 06:33:16;;;;;;;;;;;;;;;23.31;14.94;99782.72;5078212;28;1013;-78
2023/02/13 06:35:42;;;;;;;;;;;;;;;22.95;15.18;99784.94;5077879;28;904;-78
2023/02/13 06:38:07;;;;;;;;;;;;;;;22.68;15.55;99782.56;5078288;28;966;-79
2023/02/13 06:40:32;;;;;;;;;;;;;;;22.69;15.48;99777.69;5078178;28;888;-79
2023/02/13 06:42:58;;;;;;;;;;;;;;;23.03;15.15;99781.66;5078372;28;1984;-79
2023/02/13 06:45:23;;;;;;;;;;;;;;;23.00;15.23;99775.97;5078128;28;889;-78
2023/02/13 06:47:50;;;;;;;;;;;;;;;22.93;15.58;99781.69;5078077;28;957;-78
2023/02/13 06:50:16;;;;;;;;;;;;;;;22.17;15.97;99792.34;5077945;28;998;-79
2023/02/13 06:52:45;;;;;;;;;;;;;;;22.43;16.03;99787.47;5078000;28;977;-79
2023/02/13 06:55:10;;;;;;;;;;;;;;;22.27;16.38;99788.72;5077788;28;892;-79
2023/02/13 06:57:35;;;;;;;;;;;;;;;22.61;15.96;99789.06;5077675;28;967;-79
2023/02/13 07:00:04;;;;;;;;;;;;;;;22.56;15.82;99785.84;5077859;28;988;-79
2023/02/13 07:02:30;;;;;;;;;;;;;;;22.55;15.83;99789.91;5077783;28;1994;-79
2023/02/13 07:04:56;;;;;;;;;;;;;;;22.45;15.77;99790.72;5076794;28;965;-79
2023/02/13 07:07:21;;;;;;;;;;;;;;;22.28;16.22;99793.19;5076809;28;1369;-78
2023/02/13 07:09:47;;;;;;;;;;;;;;;22.15;16.52;99789.13;5077896;28;945;-79
2023/02/13 07:12:12;;;;;;;;;;;;;;;22.13;16.25;99797.25;5077972;28;865;-79
2023/02/13 07:14:38;;;;;;;;;;;;;;;21.96;16.45;99792.34;5077526;28;874;-79
2023/02/13 07:17:03;;;;;;;;;;;;;;;22.38;16.23;99790.72;5077686;28;802;-79
2023/02/13 07:19:29;;;;;;;;;;;;;;;22.79;15.46;99789.00;5076308;28;988;-78
2023/02/13 07:21:54;;;;;;;;;;;;;;;22.87;15.71;99790.59;5076624;28;1913;-78
2023/02/13 07:24:20;;;;;;;;;;;;;;;22.69;15.63;99795.53;5077464;28;872;-79
2023/02/13 07:26:45;;;;;;;;;;;;;;;22.28;16.01;99793.19;5077295;28;838;-79
2023/02/13 07:29:10;;;;;;;;;;;;;;;22.09;16.43;99790.72;5077182;28;1078;-78
2023/02/13 07:31:36;;;;;;;;;;;;;;;22.59;15.88;99796.38;5077201;28;997;-78
2023/02/13 07:34:01;;;;;;;;;;;;;;;22.58;15.77;99789.06;5077176;28;970;-78
2023/02/13 07:36:27;;;;;;;;;;;;;;;22.75;15.67;99788.22;5076907;28;912;-78
2023/02/13 07:38:53;;;;;;;;;;;;;;;22.86;15.58;99791.84;5077119;28;975;-78
2023/02/13 07:41:18;;;;;;;;;;;;;;;22.40;15.90;99782.63;5076622;28;1894;-78
2023/02/13 07:43:44;;;;;;;;;;;;;;;22.25;16.09;99785.47;5076960;28;1215;-78
2023/02/13 07:46:09;;;;;;;;;;;;;;;22.29;16.13;99785.47;5077602;28;874;-78
2023/02/13 07:48:35;;;;;;;;;;;;;;;22.23;16.06;99782.25;5058005;28;914;-78
2023/02/13 07:51:01;;;;;;;;;;;;;;;22.55;15.96;99773.69;5076777;28;882;-78
2023/02/13 07:53:26;;;;;;;;;;;;;;;22.87;15.51;99767.09;5076992;28;934;-78
2023/02/13 07:55:52;;;;;;;;;;;;;;;22.70;15.65;99768.78;5076754;28;1002;-79
2023/02/13 07:58:17;;;;;;;;;;;;;;;22.83;15.71;99778.44;5076642;28;931;-78
2023/02/13 08:00:42;;;;;;;;;;;;;;;22.81;15.50;99772.38;5076839;28;926;-78
2023/02/13 08:03:08;;;;;;;;;;;;;;;22.68;15.62;99771.19;5058045;28;1910;-78
2023/02/13 08:05:34;;;;;;;;;;;;;;;22.63;15.99;99771.63;5076401;28;1049;-78
2023/02/13 08:07:59;;;;;;;;;;;;;;;22.24;16.04;99772.53;5074922;28;1233;-78
2023/02/13 08:13:10;;;;;;;;;;;;;;;21.99;16.40;99780.19;5061105;28;990;-78
2023/02/13 08:15:36;;;;;;;;;;;;;;;22.63;15.69;99772.44;5076780;28;902;-78
2023/02/13 08:18:01;;;;;;;;;;;;;;;22.60;15.70;99769.63;5076729;28;862;-78
2023/02/13 08:20:27;;;;;;;;;;;;;;;22.90;15.46;99779.66;5076744;28;860;-78
2023/02/13 08:22:53;;;;;;;;;;;;;;;22.80;15.73;99784.97;5076485;28;1905;-78
2023/02/13 08:25:18;;;;;;;;;;;;;;;21.70;16.58;99783.00;5075168;28;972;-78
2023/02/13 08:27:44;;;;;;;;;;;;;;;21.97;16.49;99782.63;5076232;28;950;-78
2023/02/13 08:30:10;;;;;;;;;;;;;;;22.65;16.11;99776.91;5076458;28;856;-78
2023/02/13 08:32:35;;;;;;;;;;;;;;;22.84;15.61;99780.06;5076243;28;1057;-78
2023/02/13 08:35:01;;;;;;;;;;;;;;;22.75;15.77;99776.88;5053785;28;961;-78
2023/02/13 08:37:26;;;;;;;;;;;;;;;22.43;16.10;99781.81;5054468;28;925;-78
2023/02/13 08:39:51;;;;;;;;;;;;;;;21.82;16.71;99779.78;5053940;28;954;-78
2023/02/13 08:42:17;;;;;;;;;;;;;;;22.16;16.28;99773.75;5036654;28;1989;-78
2023/02/13 08:44:42;;;;;;;;;;;;;;;22.07;16.59;99778.97;5053803;28;924;-78
2023/02/13 08:47:08;;;;;;;;;;;;;;;22.06;16.62;99783.03;5053356;28;1629;-78
2023/02/13 08:49:33;;;;;;;;;;;;;;;22.48;16.04;99789.91;5053210;28;1659;-78
2023/02/13 08:51:59;;;;;;;;;;;;;;;21.76;16.83;99786.25;5053568;28;1529;-78
2023/02/13 08:54:26;;;;;;;;;;;;;;;22.79;15.82;99788.19;5053402;28;989;-78
2023/02/13 08:56:52;;;;;;;;;;;;;;;22.00;16.75;99781.81;5053743;28;997;-77
2023/02/13 08:59:17;;;;;;;;;;;;;;;22.63;16.06;99774.47;5053313;28;1254;-78
2023/02/13 09:01:43;;;;;;;;;;;;;;;22.43;16.16;99765.59;5053100;28;1906;-79
2023/02/13 09:04:08;;;;;;;;;;;;;;;21.89;16.61;99764.00;5053284;28;1378;-78
2023/02/13 09:06:34;;;;;;;;;;;;;;;22.26;16.25;99772.09;5063840;28;1436;-79
2023/02/13 09:08:59;;;;;;;;;;;;;;;22.76;15.90;99769.16;5075704;28;1347;-79
2023/02/13 09:11:25;;;;;;;;;;;;;;;22.34;16.12;99768.88;5075683;28;1522;-79
2023/02/13 09:13:53;;;;;;;;;;;;;;;22.16;16.61;99764.41;5075436;28;1287;-79
2023/02/13 09:16:19;;;;;;;;;;;;;;;22.55;16.20;99772.88;5074318;28;1270;-78
2023/02/13 09:18:48;;;;;;;;;;;;;;;23.21;15.46;99764.53;5075457;28;1551;-79
2023/02/13 09:21:13;;;;;;;;;;;;;;;22.27;16.16;99763.19;5056368;28;1902;-79
2023/02/13 09:23:39;;;;;;;;;;;;;;;22.74;16.05;99755.41;5075563;28;1736;-78
2023/02/13 09:26:05;;;;;;;;;;;;;;;22.56;16.04;99758.28;5075446;28;1367;-79
2023/02/13 09:28:31;;;;;;;;;;;;;;;22.23;16.63;99751.06;5074507;28;1518;-77
2023/02/13 09:30:56;;;;;;;;;;;;;;;22.97;15.59;99754.13;5075671;28;1570;-79
2023/02/13 09:33:22;;;;;;;;;;;;;;;22.31;16.40;99746.97;5075343;28;1253;-78
2023/02/13 09:35:48;;;;;;;;;;;;;;;22.49;16.44;99735.59;5074190;28;1271;-78
2023/02/13 09:38:13;;;;;;;;;;;;;;;22.53;16.27;99735.56;5072280;28;1699;-79
2023/02/13 09:40:41;;;;;;;;;;;;;;;22.53;16.17;99725.03;5077746;28;974;-79
2023/02/13 09:43:11;;;;;;;;;;;;;;;22.53;16.08;99730.72;5079651;28;1914;-78
2023/02/13 09:45:36;;;;;;;;;;;;;;;22.77;15.89;99716.84;5112033;28;905;-79
2023/02/13 09:48:02;;;;;;;;;;;;;;;22.19;16.37;99713.38;5112340;28;979;-79
2023/02/13 09:50:29;;;;;;;;;;;;;;;22.31;16.39;99700.81;5112206;28;917;-79
2023/02/13 09:52:54;;;;;;;;;;;;;;;22.23;16.42;99705.69;5111743;28;968;-79
2023/02/13 09:55:21;;;;;;;;;;;;;;;23.03;15.56;99707.03;5112100;28;954;-79
2023/02/13 09:57:56;;;;;;;;;;;;;;;22.53;16.37;99699.50;5112210;28;995;-79
2023/02/13 10:00:24;;;;;;;;;;;;;;;22.48;16.15;99699.13;5111817;28;902;-79
2023/02/13 10:02:53;;;;;;;;;;;;;;;22.01;16.98;99692.72;5079346;28;1917;-78
2023/02/13 10:05:37;;;;;;;;;;;;;;;22.82;15.94;99683.19;5078844;28;1060;-79
2023/02/13 10:08:15;;;;;;;;;;;;;;;22.67;16.25;99684.47;5078661;28;886;-78
2023/02/13 10:11:03;;;;;;;;;;;;;;;21.77;16.96;99677.38;5079177;28;962;-79
2023/02/13 10:13:41;;;;;;;;;;;;;;;22.75;16.31;99683.22;5094669;28;1156;-79
2023/02/13 10:16:16;;;;;;;;;;;;;;;22.64;16.14;99673.97;5070815;28;1905;-79
2023/02/13 10:18:42;;;;;;;;;;;;;;;22.83;15.94;99679.13;5091382;28;979;-79
2023/02/13 10:21:07;;;;;;;;;;;;;;;22.61;16.27;99669.91;5059074;28;1902;-80
2023/02/13 10:23:33;;;;;;;;;;;;;;;23.18;15.65;99677.34;5091140;28;1112;-80
2023/02/13 10:26:10;;;;;;;;;;;;;;;22.31;16.73;99672.44;5058881;28;899;-79
2023/02/13 10:30:03;;;;;;;;;;;;;;;23.23;15.99;99676.09;5090873;28;877;-79
2023/02/13 10:31:37;;;;;;;;;;;;;;;22.71;16.11;99662.56;5059108;28;861;-80
2023/02/13 10:34:02;;;;;;;;;;;;;;;23.08;15.78;99669.69;5074177;28;1660;-80
2023/02/13 10:36:29;;;;;;;;;;;;;;;22.16;16.89;99666.00;5074169;28;938;-80
2023/02/13 10:38:55;;;;;;;;;;;;;;;22.14;16.59;99657.09;5090986;28;1207;-80
2023/02/13 10:41:20;;;;;;;;;;;;;;;22.72;16.08;99657.69;5058691;28;1902;-80
2023/02/13 10:43:46;;;;;;;;;;;;;;;23.02;16.17;99649.44;5065759;28;1580;-80
2023/02/13 10:46:19;;;;;;;;;;;;;;;22.48;16.51;99659.41;5077994;28;1369;-79
2023/02/13 10:48:50;;;;;;;;;;;;;;;22.55;16.63;99654.53;5080153;28;1781;-79
2023/02/13 10:51:16;;;;;;;;;;;;;;;22.96;16.24;99650.31;5076624;28;1471;-80
2023/02/13 10:53:44;;;;;;;;;;;;;;;22.88;15.92;99649.53;5077865;28;1375;-79
2023/02/13 10:56:18;;;;;;;;;;;;;;;22.49;16.40;99649.72;5078326;28;1627;-80
2023/02/13 10:58:47;;;;;;;;;;;;;;;23.19;15.77;99647.72;5076627;28;1632;-79
2023/02/13 11:01:15;;;;;;;;;;;;;;;22.95;16.11;99649.50;5077890;28;1902;-79
2023/02/13 11:03:40;;;;;;;;;;;;;;;22.53;16.33;99644.81;5076473;28;1454;-79
2023/02/13 11:06:07;;;;;;;;;;;;;;;23.09;15.73;99646.56;5093749;28;1158;-79
2023/02/13 11:08:33;;;;;;;;;;;;;;;22.52;16.40;99644.00;5083089;28;1529;-79
2023/02/13 11:10:58;;;;;;;;;;;;;;;22.18;16.97;99642.94;5068607;28;1469;-78
2023/02/13 11:13:25;;;;;;;;;;;;;;;22.61;16.49;99629.38;5059588;28;1492;-77
2023/02/13 11:15:59;;;;;;;;;;;;;;;22.83;16.16;99636.53;5077716;28;1484;-80
2023/02/13 11:18:25;;;;;;;;;;;;;;;22.76;16.16;99642.28;5076340;28;1686;-79
2023/02/13 11:20:58;;;;;;;;;;;;;;;22.08;16.82;99636.84;5087477;28;1236;-79
2023/02/13 11:23:32;;;;;;;;;;;;;;;23.10;15.87;99630.31;5104358;28;1905;-79
2023/02/13 11:26:08;;;;;;;;;;;;;;;22.39;16.39;99623.00;5110761;28;902;-79
2023/02/13 11:28:35;;;;;;;;;;;;;;;22.18;16.86;99623.09;5059601;28;966;-78
2023/02/13 11:31:11;;;;;;;;;;;;;;;23.08;15.92;99610.06;5110568;28;957;-78
2023/02/13 11:33:36;;;;;;;;;;;;;;;22.67;16.18;99616.38;5109747;28;913;-78
2023/02/13 11:36:08;;;;;;;;;;;;;;;22.55;16.33;99614.00;5110307;28;930;-79
2023/02/13 11:38:34;;;;;;;;;;;;;;;22.65;16.42;99603.84;5109938;28;1087;-79
2023/02/13 11:41:12;;;;;;;;;;;;;;;22.66;16.14;99596.94;5110112;28;911;-79
2023/02/13 11:44:10;;;;;;;;;;;;;;;22.57;16.39;99592.50;5107795;28;1696;-79
2023/02/13 11:46:45;;;;;;;;;;;;;;;22.62;16.28;99591.28;5095459;28;874;-79
2023/02/13 11:49:31;;;;;;;;;;;;;;;23.02;16.19;99598.34;5077948;28;1120;-79
2023/02/13 11:51:57;;;;;;;;;;;;;;;22.87;16.03;99591.94;5060883;28;1509;-79
2023/02/13 11:54:34;;;;;;;;;;;;;;;22.99;16.12;99581.34;5088644;28;1537;-79
2023/02/13 11:57:15;;;;;;;;;;;;;;;22.94;15.92;99576.91;5088843;28;1517;-78
2023/02/13 11:59:41;;;;;;;;;;;;;;;22.60;16.29;99588.06;5066653;28;1376;-79
2023/02/13 12:02:13;;;;;;;;;;;;;;;22.46;16.42;99583.25;5060224;28;2022;-79
2023/02/13 12:04:38;;;;;;;;;;;;;;;23.21;15.92;99579.97;5090265;28;1509;-79
2023/02/13 12:07:11;;;;;;;;;;;;;;;22.53;16.34;99576.72;5073731;28;1442;-79
2023/02/13 12:09:36;;;;;;;;;;;;;;;22.64;16.33;99574.66;5057494;28;998;-78
2023/02/13 12:12:02;;;;;;;;;;;;;;;22.49;16.41;99567.44;5074647;28;966;-78
2023/02/13 12:14:29;;;;;;;;;;;;;;;22.29;16.69;99567.13;5074151;28;960;-79
2023/02/13 12:17:14;;;;;;;;;;;;;;;21.90;17.28;99567.25;5057848;28;978;-79
2023/02/13 12:19:41;;;;;;;;;;;;;;;21.96;16.88;99559.94;5057427;28;947;-79
2023/02/13 12:22:27;;;;;;;;;;;;;;;21.68;17.57;99558.81;5055193;28;1898;-78
2023/02/13 12:25:11;;;;;;;;;;;;;;;22.04;16.93;99555.88;5056671;28;920;-78
2023/02/13 12:28:09;;;;;;;;;;;;;;;22.47;16.81;99544.34;5056200;28;888;-79
2023/02/13 12:30:37;;;;;;;;;;;;;;;22.44;16.57;99550.88;5073941;28;941;-79
2023/02/13 12:33:16;;;;;;;;;;;;;;;22.09;16.91;99546.94;5056955;28;1011;-79
2023/02/13 12:35:48;;;;;;;;;;;;;;;22.27;16.95;99544.84;5057217;28;1081;-78
2023/02/13 12:38:15;;;;;;;;;;;;;;;22.51;16.61;99545.94;5074023;28;966;-79
2023/02/13 12:40:47;;;;;;;;;;;;;;;22.53;16.60;99542.69;5073765;28;920;-79
2023/02/13 12:43:28;;;;;;;;;;;;;;;22.59;16.54;99541.03;5073661;28;1905;-79
2023/02/13 12:45:54;;;;;;;;;;;;;;;22.73;16.48;99535.25;5056990;28;1020;-79
2023/02/13 12:48:22;;;;;;;;;;;;;;;22.75;16.83;99532.03;5073758;28;1882;-78
2023/02/13 12:51:06;;;;;;;;;;;;;;;22.35;16.65;99537.94;5073300;28;1548;-78
2023/02/13 12:53:40;;;;;;;;;;;;;;;22.35;16.74;99532.25;5073330;28;1256;-79
2023/02/13 12:56:14;;;;;;;;;;;;;;;22.73;16.31;99540.13;5073482;28;879;-78
2023/02/13 12:58:40;;;;;;;;;;;;;;;22.21;17.02;99534.34;5073859;28;1568;-79
2023/02/13 13:01:23;;;;;;;;;;;;;;;22.46;16.50;99534.22;5073695;28;964;-79
2023/02/13 13:03:50;;;;;;;;;;;;;;;22.48;16.64;99540.28;5073999;28;895;-79
2023/02/13 13:06:34;;;;;;;;;;;;;;;22.11;17.01;99524.69;5054203;28;1160;-79
2023/02/13 13:09:00;;;;;;;;;;;;;;;22.28;16.99;99529.47;5055735;28;917;-78
2023/02/13 13:11:25;;;;;;;;;;;;;;;22.41;16.88;99526.16;5055994;28;980;-78
2023/02/13 13:14:00;;;;;;;;;;;;;;;22.79;16.58;99521.44;5057548;28;966;-79
2023/02/13 13:16:28;;;;;;;;;;;;;;;22.73;16.75;99518.22;5062319;28;889;-79
2023/02/13 13:19:05;;;;;;;;;;;;;;;23.07;16.13;99517.59;5095120;28;830;-79
2023/02/13 13:21:37;;;;;;;;;;;;;;;23.01;16.20;99516.44;5062432;28;1902;-78
2023/02/13 13:24:05;;;;;;;;;;;;;;;22.95;16.27;99518.09;5062575;28;988;-79
2023/02/13 13:26:43;;;;;;;;;;;;;;;23.04;16.26;99518.44;5120485;28;1082;-79
2023/02/13 13:29:14;;;;;;;;;;;;;;;23.06;16.00;99513.16;5080048;28;953;-79
2023/02/13 13:31:40;;;;;;;;;;;;;;;22.32;16.79;99504.72;5079929;28;962;-80
2023/02/13 13:34:06;;;;;;;;;;;;;;;22.60;16.77;99505.78;5080001;28;939;-79
2023/02/13 13:36:36;;;;;;;;;;;;;;;22.59;16.84;99498.50;5079748;28;1080;-79
2023/02/13 13:39:13;;;;;;;;;;;;;;;22.47;16.77;99504.63;5079693;28;1003;-77
2023/02/13 13:41:44;;;;;;;;;;;;;;;22.80;16.69;99495.50;5080066;28;1898;-78
2023/02/13 13:44:15;;;;;;;;;;;;;;;22.75;16.76;99503.66;5079964;28;966;-77
2023/02/13 13:46:47;;;;;;;;;;;;;;;22.57;16.75;99493.22;5079541;28;1152;-77